createdAt,value
2019-01-18T00:00:59.884Z,0.42
2019-01-18T00:04:06.763Z,0.38
2019-01-18T00:07:13.727Z,0.36
2019-01-18T00:10:20.603Z,0.69
2019-01-18T00:13:27.680Z,0.28
2019-01-18T00:16:35.626Z,0.52
2019-01-18T00:19:42.530Z,0.66
2019-01-18T00:22:50.485Z,0.61
2019-01-18T00:25:58.035Z,0.24
2019-01-18T00:29:05.236Z,0.44
2019-01-18T00:32:12.153Z,0.51
2019-01-18T00:35:19.039Z,0.63
2019-01-18T00:38:25.975Z,0.59
2019-01-18T00:41:32.855Z,0.66
2019-01-18T00:44:39.789Z,0.41
2019-01-18T00:47:46.732Z,0.60
2019-01-18T00:50:53.985Z,0.48
2019-01-18T00:54:01.938Z,0.55
2019-01-18T00:57:08.973Z,0.61
2019-01-18T01:00:20.223Z,0.51
2019-01-18T01:03:27.210Z,0.42
2019-01-18T01:06:34.088Z,0.69
2019-01-18T01:09:40.997Z,0.52
2019-01-18T01:12:47.974Z,0.50
2019-01-18T01:15:58.035Z,0.46
2019-01-18T01:19:04.906Z,0.49
2019-01-18T01:22:11.906Z,0.48
2019-01-18T01:25:18.799Z,0.50
2019-01-18T01:28:25.781Z,0.59
2019-01-18T01:31:32.663Z,0.56
2019-01-18T01:34:39.573Z,0.58
2019-01-18T01:37:49.395Z,0.61
2019-01-18T01:40:56.319Z,0.53
2019-01-18T01:44:03.296Z,0.51
2019-01-18T01:47:10.201Z,0.52
2019-01-18T01:50:21.620Z,0.47
2019-01-18T01:53:28.523Z,0.52
2019-01-18T01:56:37.101Z,0.50
2019-01-18T01:59:49.944Z,0.39
2019-01-18T02:02:55.477Z,0.44
2019-01-18T02:06:02.407Z,0.51
2019-01-18T02:09:09.427Z,0.57
2019-01-18T02:12:17.777Z,0.48
2019-01-18T02:15:27.421Z,0.35
2019-01-18T02:18:34.351Z,0.43
2019-01-18T02:21:41.685Z,0.55
2019-01-18T02:24:49.704Z,0.39
2019-01-18T02:27:56.574Z,0.43
2019-01-18T02:31:03.570Z,0.45
2019-01-18T02:34:10.434Z,0.48
2019-01-18T02:37:17.379Z,0.33
2019-01-18T02:40:24.248Z,0.49
2019-01-18T02:43:32.830Z,0.52
2019-01-18T02:46:40.039Z,0.44
2019-01-18T02:49:47.372Z,0.49
2019-01-18T02:52:54.243Z,0.40
2019-01-18T02:56:01.193Z,0.36
2019-01-18T02:59:08.552Z,0.41
2019-01-18T03:02:15.464Z,0.47
2019-01-18T03:05:26.461Z,0.49
2019-01-18T03:08:33.438Z,0.38
2019-01-18T03:11:40.600Z,0.53
2019-01-18T03:14:47.849Z,0.48
2019-01-18T03:17:54.728Z,0.53
2019-01-18T03:21:01.633Z,0.52
2019-01-18T03:24:08.519Z,0.37
2019-01-18T03:27:15.415Z,0.52
2019-01-18T03:30:22.621Z,0.39
2019-01-18T03:33:29.601Z,0.38
2019-01-18T03:36:36.567Z,0.35
2019-01-18T03:39:45.868Z,0.43
2019-01-18T03:42:53.229Z,0.39
2019-01-18T03:46:00.136Z,0.34
2019-01-18T03:49:07.505Z,0.29
2019-01-18T03:52:14.428Z,0.25
2019-01-18T03:55:21.306Z,0.24
2019-01-18T03:58:28.234Z,0.16
2019-01-18T04:01:36.117Z,0.18
2019-01-18T04:04:43.121Z,0.22
2019-01-18T04:07:50.079Z,0.23
2019-01-18T04:10:56.995Z,0.14
2019-01-18T04:14:04.059Z,0.05
2019-01-18T04:17:10.987Z,0.12
2019-01-18T04:20:18.694Z,0.09
2019-01-18T04:23:25.636Z,0.10
2019-01-18T04:26:32.521Z,0.08
2019-01-18T04:29:41.593Z,0.03
2019-01-18T04:32:48.520Z,0.07
2019-01-18T04:35:55.533Z,0.16
2019-01-18T04:39:04.041Z,0.05
2019-01-18T04:42:12.036Z,-0.03
2019-01-18T04:45:18.922Z,0.01
2019-01-18T04:48:25.850Z,-0.03
2019-01-18T04:51:32.762Z,-0.07
2019-01-18T04:54:40.008Z,-0.13
2019-01-18T04:57:49.730Z,-0.04
2019-01-18T05:00:56.737Z,-0.05
2019-01-18T05:04:03.921Z,-0.07
2019-01-18T05:07:10.842Z,-0.12
2019-01-18T05:10:19.434Z,-0.11
2019-01-18T05:13:26.375Z,-0.14
2019-01-18T05:16:33.376Z,-0.13
2019-01-18T05:19:41.581Z,-0.06
2019-01-18T05:22:49.662Z,-0.12
2019-01-18T05:25:56.588Z,-0.30
2019-01-18T05:29:03.497Z,-0.22
2019-01-18T05:32:10.804Z,-0.48
2019-01-18T05:35:17.897Z,-0.69
2019-01-18T05:38:24.851Z,-0.93
2019-01-18T05:41:31.824Z,-0.85
2019-01-18T05:44:38.746Z,-0.92
2019-01-18T05:47:45.696Z,-0.82
2019-01-18T05:50:52.629Z,-0.89
2019-01-18T05:53:59.648Z,-0.96
2019-01-18T05:57:06.894Z,-0.96
2019-01-18T06:00:21.771Z,-1.01
2019-01-18T06:03:28.693Z,-0.88
2019-01-18T06:06:37.711Z,-0.85
2019-01-18T06:09:44.707Z,-0.99
2019-01-18T06:12:51.658Z,-0.98
2019-01-18T06:15:58.580Z,-0.92
2019-01-18T06:19:05.549Z,-0.98
2019-01-18T06:22:12.701Z,-0.89
2019-01-18T06:25:19.767Z,-0.79
2019-01-18T06:28:27.733Z,-0.92
2019-01-18T06:31:34.621Z,-0.93
2019-01-18T06:34:41.564Z,-0.92
2019-01-18T06:37:48.452Z,-1.01
2019-01-18T06:40:58.930Z,-0.99
2019-01-18T06:44:06.083Z,-1.03
2019-01-18T06:47:13.091Z,-0.94
2019-01-18T06:50:21.083Z,-0.96
2019-01-18T06:53:28.008Z,-0.94
2019-01-18T06:56:35.004Z,-0.97
2019-01-18T06:59:41.951Z,-0.92
2019-01-18T07:02:48.970Z,-0.87
2019-01-18T07:05:56.853Z,-1.00
2019-01-18T07:09:06.025Z,-0.94
2019-01-18T07:12:12.934Z,-0.97
2019-01-18T07:15:19.899Z,-0.99
2019-01-18T07:18:26.812Z,-1.08
2019-01-18T07:21:33.718Z,-1.13
2019-01-18T07:24:40.635Z,-1.12
2019-01-18T07:27:47.610Z,-1.18
2019-01-18T07:30:54.929Z,-1.14
2019-01-18T07:34:04.878Z,-1.13
2019-01-18T07:37:11.806Z,-1.17
2019-01-18T07:40:18.683Z,-1.15
2019-01-18T07:43:25.753Z,-1.14
2019-01-18T07:46:32.899Z,-1.10
2019-01-18T07:49:39.819Z,-1.24
2019-01-18T07:52:46.821Z,-1.22
2019-01-18T07:55:53.757Z,-1.22
2019-01-18T07:59:00.653Z,-1.12
2019-01-18T08:02:07.622Z,-1.20
2019-01-18T08:05:14.565Z,-1.16
2019-01-18T08:08:21.495Z,-1.26
2019-01-18T08:11:29.905Z,-1.29
2019-01-18T08:14:36.829Z,-1.31
2019-01-18T08:17:43.753Z,-1.37
2019-01-18T08:20:50.771Z,-1.48
2019-01-18T08:23:57.644Z,-1.50
2019-01-18T08:27:04.653Z,-1.48
2019-01-18T08:30:16.131Z,-1.57
2019-01-18T08:33:23.295Z,-1.54
2019-01-18T08:36:30.182Z,-1.57
2019-01-18T08:39:37.758Z,-1.56
2019-01-18T08:42:44.651Z,-1.54
2019-01-18T08:45:58.867Z,-1.41
2019-01-18T08:49:05.778Z,-1.61
2019-01-18T08:52:12.717Z,-1.67
2019-01-18T08:55:19.955Z,-1.70
2019-01-18T08:58:27.091Z,-1.62
2019-01-18T09:01:35.827Z,-1.62
2019-01-18T09:04:42.629Z,-1.52
2019-01-18T09:07:50.576Z,-1.66
2019-01-18T09:10:57.604Z,-1.80
2019-01-18T09:14:04.801Z,-1.66
2019-01-18T09:17:11.722Z,-1.62
2019-01-18T09:20:22.017Z,-1.72
2019-01-18T09:23:28.948Z,-1.66
2019-01-18T09:26:35.846Z,-1.53
2019-01-18T09:29:42.780Z,-1.87
2019-01-18T09:32:50.284Z,-1.83
2019-01-18T09:35:57.215Z,-1.80
2019-01-18T09:39:05.604Z,-1.94
2019-01-18T09:42:16.253Z,-1.75
2019-01-18T09:45:23.509Z,-1.69
2019-01-18T09:48:30.426Z,-1.88
2019-01-18T09:51:37.346Z,-1.78
2019-01-18T09:54:44.317Z,-1.99
2019-01-18T09:57:51.238Z,-2.04
2019-01-18T10:00:58.178Z,-1.98
2019-01-18T10:04:05.131Z,-2.11
2019-01-18T10:07:12.086Z,-1.97
2019-01-18T10:10:20.127Z,-1.79
2019-01-18T10:13:27.094Z,-1.75
2019-01-18T10:16:34.288Z,-1.71
2019-01-18T10:19:41.223Z,-1.42
2019-01-18T10:22:49.111Z,-1.18
2019-01-18T10:25:56.056Z,-1.46
2019-01-18T10:29:03.041Z,-1.22
2019-01-18T10:32:13.192Z,-1.29
2019-01-18T10:35:21.105Z,-1.33
2019-01-18T10:38:28.117Z,-1.29
2019-01-18T10:41:35.027Z,-1.12
2019-01-18T10:44:41.960Z,-1.31
2019-01-18T10:47:49.044Z,-1.23
2019-01-18T10:50:56.050Z,-1.36
2019-01-18T10:54:02.924Z,-1.44
2019-01-18T10:57:09.990Z,-1.61
2019-01-18T11:00:23.029Z,-1.59
2019-01-18T11:03:29.933Z,-1.38
2019-01-18T11:06:36.827Z,-1.30
2019-01-18T11:09:43.784Z,-1.48
2019-01-18T11:12:50.666Z,-1.36
2019-01-18T11:15:57.595Z,-1.13
2019-01-18T11:19:05.741Z,-1.16
2019-01-18T11:22:12.840Z,-1.13
2019-01-18T11:25:19.738Z,-1.22
2019-01-18T11:28:26.690Z,-1.54
2019-01-18T11:31:33.569Z,-1.34
2019-01-18T11:34:40.496Z,-1.17
2019-01-18T11:37:47.525Z,-1.39
2019-01-18T11:40:54.650Z,-1.35
2019-01-18T11:44:03.492Z,-1.32
2019-01-18T11:47:11.823Z,-1.11
2019-01-18T11:50:24.491Z,-0.90
2019-01-18T11:53:31.434Z,-0.47
2019-01-18T11:56:38.329Z,-0.80
2019-01-18T11:59:49.042Z,-0.43
2019-01-18T12:02:53.847Z,-0.72
2019-01-18T12:06:00.803Z,-0.48
2019-01-18T12:09:09.535Z,-0.39
2019-01-18T12:12:16.475Z,-0.79
2019-01-18T12:15:23.352Z,-0.80
2019-01-18T12:18:31.435Z,-0.51
2019-01-18T12:21:38.689Z,-0.61
2019-01-18T12:24:45.654Z,-0.89
2019-01-18T12:27:52.544Z,-0.83
2019-01-18T12:30:59.455Z,-0.80
2019-01-18T12:34:06.488Z,-0.63
2019-01-18T12:37:13.407Z,-0.61
2019-01-18T12:40:20.789Z,-0.56
2019-01-18T12:43:27.850Z,-0.60
2019-01-18T12:46:34.726Z,-0.70
2019-01-18T12:49:41.970Z,-0.62
2019-01-18T12:52:48.832Z,-0.76
2019-01-18T12:55:55.861Z,-0.83
2019-01-18T12:59:02.751Z,-1.00
2019-01-18T13:02:09.800Z,-0.72
2019-01-18T13:05:21.129Z,-0.22
2019-01-18T13:08:28.050Z,-0.77
2019-01-18T13:11:34.940Z,0.16
2019-01-18T13:14:42.028Z,0.36
2019-01-18T13:17:49.364Z,-0.10
2019-01-18T13:20:56.329Z,-0.09
2019-01-18T13:24:03.594Z,0.48
2019-01-18T13:27:10.500Z,0.58
2019-01-18T13:30:17.666Z,0.27
2019-01-18T13:33:24.583Z,0.26
2019-01-18T13:36:31.454Z,0.07
2019-01-18T13:39:38.526Z,0.39
2019-01-18T13:42:45.512Z,0.55
2019-01-18T13:45:52.429Z,0.74
2019-01-18T13:48:59.303Z,0.75
2019-01-18T13:52:06.238Z,0.80
2019-01-18T13:55:20.587Z,0.67
2019-01-18T13:58:27.568Z,0.72
2019-01-18T14:01:34.595Z,0.43
2019-01-18T14:04:41.519Z,0.80
2019-01-18T14:07:48.398Z,0.75
2019-01-18T14:10:55.325Z,0.81
2019-01-18T14:14:02.242Z,0.53
2019-01-18T14:17:11.412Z,0.93
2019-01-18T14:20:20.949Z,1.05
2019-01-18T14:23:27.517Z,0.86
2019-01-18T14:26:34.758Z,0.58
2019-01-18T14:29:41.683Z,0.82
2019-01-18T14:32:55.140Z,0.60
2019-01-18T14:35:57.376Z,0.60
2019-01-18T14:39:06.805Z,0.48
2019-01-18T14:42:16.916Z,0.57
2019-01-18T14:45:34.181Z,1.05
2019-01-18T14:48:43.965Z,1.17
2019-01-18T14:51:50.971Z,0.75
2019-01-18T14:54:57.901Z,0.83
2019-01-18T14:58:11.806Z,0.29
2019-01-18T15:01:18.920Z,0.14
2019-01-18T15:04:25.806Z,0.16
2019-01-18T15:07:32.726Z,0.43
2019-01-18T15:10:39.604Z,0.52
2019-01-18T15:13:46.509Z,0.48
2019-01-18T15:16:53.393Z,0.10
2019-01-18T15:20:00.431Z,-0.45
2019-01-18T15:23:09.592Z,-0.39
2019-01-18T15:26:18.484Z,-0.30
2019-01-18T15:29:26.048Z,-0.25
2019-01-18T15:32:33.092Z,-0.64
2019-01-18T15:35:40.667Z,-0.48
2019-01-18T15:38:47.793Z,-0.46
2019-01-18T15:41:54.703Z,-0.54
2019-01-18T15:45:01.647Z,-0.54
2019-01-18T15:48:08.686Z,-0.92
2019-01-18T15:51:16.008Z,-0.99
2019-01-18T15:54:23.230Z,-1.16
2019-01-18T15:57:30.308Z,-1.18
2019-01-18T16:00:40.842Z,-1.23
2019-01-18T16:03:47.907Z,-1.32
2019-01-18T16:06:54.908Z,-1.26
2019-01-18T16:10:01.913Z,-1.50
2019-01-18T16:13:10.875Z,-1.63
2019-01-18T16:16:33.314Z,-1.78
2019-01-18T16:19:40.262Z,-1.62
2019-01-18T16:22:47.522Z,-1.88
2019-01-18T16:25:54.428Z,-2.23
2019-01-18T16:29:01.353Z,-2.15
2019-01-18T16:32:08.581Z,-2.03
2019-01-18T16:35:19.537Z,-2.12
2019-01-18T16:38:26.659Z,-2.86
2019-01-18T16:41:34.724Z,-2.94
2019-01-18T16:44:41.753Z,-2.91
2019-01-18T16:47:48.765Z,-2.72
2019-01-18T16:50:55.791Z,-3.02
2019-01-18T16:54:02.932Z,-2.77
2019-01-18T16:57:11.124Z,-3.03
2019-01-18T17:00:34.249Z,-3.58
2019-01-18T17:03:41.267Z,-3.32
2019-01-18T17:06:48.876Z,-3.03
2019-01-18T17:09:55.784Z,-3.04
2019-01-18T17:13:02.742Z,-3.20
2019-01-18T17:16:10.206Z,-3.17
2019-01-18T17:19:17.465Z,-3.34
2019-01-18T17:22:24.406Z,-3.63
2019-01-18T17:25:31.322Z,-3.81
2019-01-18T17:28:38.390Z,-3.82
2019-01-18T17:31:47.042Z,-3.67
2019-01-18T17:34:54.552Z,-3.66
2019-01-18T17:38:19.870Z,-3.74
2019-01-18T17:42:08.903Z,-3.54
2019-01-18T17:46:01.903Z,-3.59
2019-01-18T17:49:49.391Z,-3.70
2019-01-18T17:53:50.386Z,-4.03
2019-01-18T17:58:04.591Z,-3.84
2019-01-18T18:01:58.677Z,-4.15
2019-01-18T18:06:04.159Z,-4.20
2019-01-18T18:09:44.063Z,-4.23
2019-01-18T18:13:46.270Z,-4.42
2019-01-18T18:17:43.444Z,-4.17
2019-01-18T18:21:59.087Z,-4.10
2019-01-18T18:26:24.384Z,-4.26
2019-01-18T18:30:18.580Z,-4.21
2019-01-18T18:34:30.651Z,-4.14
2019-01-18T18:38:43.842Z,-4.57
2019-01-18T18:42:40.121Z,-4.29
2019-01-18T18:46:44.937Z,-4.34
2019-01-18T18:50:37.421Z,-4.33
2019-01-18T18:54:41.666Z,-4.29
2019-01-18T18:58:50.981Z,-4.16
2019-01-18T19:02:40.313Z,-4.39
2019-01-18T19:06:53.351Z,-4.31
2019-01-18T19:10:55.703Z,-4.41
2019-01-18T19:14:50.362Z,-4.51
2019-01-18T19:18:55.077Z,-4.39
2019-01-18T19:23:02.289Z,-4.56
2019-01-18T19:26:53.272Z,-4.46
2019-01-18T19:31:14.674Z,-4.34
2019-01-18T19:35:18.929Z,-4.22
2019-01-18T19:39:32.526Z,-4.35
2019-01-18T19:43:56.816Z,-4.39
2019-01-18T19:47:39.310Z,-4.32
2019-01-18T19:51:41.877Z,-4.43
2019-01-18T19:55:41.185Z,-4.57
2019-01-18T19:59:59.251Z,-4.59
2019-01-18T20:03:31.870Z,-4.63
2019-01-18T20:07:05.250Z,-4.71
2019-01-18T20:10:56.597Z,-4.65
2019-01-18T20:14:45.559Z,-4.71
2019-01-18T20:18:35.108Z,-4.87
2019-01-18T20:22:42.439Z,-4.82
2019-01-18T20:26:52.342Z,-4.74
2019-01-18T20:30:55.436Z,-4.80
2019-01-18T20:34:57.182Z,-5.01
2019-01-18T20:39:06.125Z,-4.95
2019-01-18T20:43:14.502Z,-5.00
2019-01-18T20:47:33.241Z,-4.91
2019-01-18T20:51:37.747Z,-5.12
2019-01-18T20:55:39.688Z,-5.26
2019-01-18T20:59:50.330Z,-5.32
2019-01-18T21:03:40.300Z,-5.28
2019-01-18T21:07:29.231Z,-5.35
2019-01-18T21:11:54.517Z,-5.32
2019-01-18T21:15:15.766Z,-5.46
2019-01-18T21:18:47.839Z,-5.48
2019-01-18T21:22:58.626Z,-5.50
2019-01-18T21:26:58.584Z,-5.45
2019-01-18T21:30:40.369Z,-5.64
2019-01-18T21:34:32.988Z,-5.50
2019-01-18T21:38:46.466Z,-5.39
2019-01-18T21:42:37.056Z,-5.37
2019-01-18T21:46:11.695Z,-5.63
2019-01-18T21:49:52.541Z,-5.73
2019-01-18T21:53:40.843Z,-5.51
2019-01-18T21:57:49.936Z,-5.48
2019-01-18T22:01:51.565Z,-5.58
2019-01-18T22:06:16.974Z,-5.89
2019-01-18T22:10:09.933Z,-5.73
2019-01-18T22:14:12.494Z,-5.72
2019-01-18T22:18:14.871Z,-5.85
2019-01-18T22:22:14.098Z,-6.05
2019-01-18T22:25:43.464Z,-6.00
2019-01-18T22:30:07.620Z,-5.85
2019-01-18T22:33:47.203Z,-6.05
2019-01-18T22:38:18.638Z,-5.95
2019-01-18T22:42:37.695Z,-5.95
2019-01-18T22:46:43.474Z,-6.21
2019-01-18T22:50:21.372Z,-6.11
2019-01-18T22:53:49.035Z,-6.18
2019-01-18T22:57:52.504Z,-6.23
2019-01-18T23:02:04.389Z,-6.23
2019-01-18T23:06:00.870Z,-6.26
2019-01-18T23:09:46.571Z,-6.24
2019-01-18T23:13:37.381Z,-6.15
2019-01-18T23:17:58.577Z,-6.21
2019-01-18T23:22:11.720Z,-6.23
2019-01-18T23:26:02.755Z,-6.28
2019-01-18T23:29:46.570Z,-6.27
2019-01-18T23:33:45.539Z,-6.37
2019-01-18T23:37:58.114Z,-6.39
2019-01-18T23:42:14.333Z,-6.24
2019-01-18T23:46:23.427Z,-6.51
2019-01-18T23:50:13.272Z,-6.53
2019-01-18T23:54:19.457Z,-6.41
2019-01-18T23:58:04.425Z,-6.40
